createdAt,value
2018-02-06T00:01:04.757Z,38.90
2018-02-06T00:03:33.018Z,38.80
2018-02-06T00:06:00.533Z,34.97
2018-02-06T00:08:28.026Z,38.60
2018-02-06T00:10:55.546Z,40.60
2018-02-06T00:13:23.041Z,45.50
2018-02-06T00:15:50.562Z,38.70
2018-02-06T00:18:18.058Z,47.20
2018-02-06T00:20:45.558Z,42.30
2018-02-06T00:23:13.078Z,34.60
2018-02-06T00:25:40.574Z,38.33
2018-02-06T00:28:08.094Z,36.60
2018-02-06T00:30:35.594Z,37.13
2018-02-06T00:33:03.113Z,32.73
2018-02-06T00:35:30.609Z,39.07
2018-02-06T00:37:58.112Z,36.97
2018-02-06T00:40:25.625Z,32.30
2018-02-06T00:42:53.118Z,35.70
2018-02-06T00:45:20.634Z,36.90
2018-02-06T00:47:48.944Z,36.00
2018-02-06T00:50:16.438Z,35.80
2018-02-06T00:52:43.933Z,39.07
2018-02-06T00:55:12.218Z,38.20
2018-02-06T00:57:39.712Z,41.97
2018-02-06T01:00:07.209Z,39.10
2018-02-06T01:02:35.489Z,43.87
2018-02-06T01:05:03.754Z,38.60
2018-02-06T01:07:31.273Z,36.60
2018-02-06T01:09:58.769Z,38.70
2018-02-06T01:12:26.282Z,34.90
2018-02-06T01:14:53.782Z,36.00
2018-02-06T01:17:21.302Z,37.40
2018-02-06T01:19:48.797Z,40.77
2018-02-06T01:22:16.293Z,37.87
2018-02-06T01:24:43.809Z,36.03
2018-02-06T01:27:11.306Z,37.53
2018-02-06T01:29:38.821Z,34.60
2018-02-06T01:32:06.317Z,36.83
2018-02-06T01:34:34.597Z,40.10
2018-02-06T01:37:02.093Z,39.03
2018-02-06T01:39:29.590Z,36.20
2018-02-06T01:41:57.113Z,40.23
2018-02-06T01:44:24.913Z,34.37
2018-02-06T01:46:52.409Z,36.40
2018-02-06T01:49:19.906Z,33.53
2018-02-06T01:51:47.425Z,31.60
2018-02-06T01:54:14.922Z,33.37
2018-02-06T01:56:42.438Z,34.70
2018-02-06T01:59:09.938Z,36.00
2018-02-06T02:01:37.491Z,36.43
2018-02-06T02:04:04.971Z,34.63
2018-02-06T02:06:32.465Z,37.30
2018-02-06T02:08:59.996Z,34.70
2018-02-06T02:11:28.266Z,37.37
2018-02-06T02:13:55.782Z,35.77
2018-02-06T02:16:23.281Z,36.00
2018-02-06T02:18:50.773Z,34.13
2018-02-06T02:21:18.290Z,37.47
2018-02-06T02:23:45.781Z,37.93
2018-02-06T02:26:13.317Z,34.63
2018-02-06T02:28:40.809Z,34.83
2018-02-06T02:31:08.306Z,36.27
2018-02-06T02:33:35.838Z,36.90
2018-02-06T02:36:03.334Z,35.40
2018-02-06T02:38:31.617Z,34.67
2018-02-06T02:40:59.114Z,39.17
2018-02-06T04:39:10.637Z,37.90
2018-02-06T04:41:38.133Z,34.57
2018-02-06T04:44:06.414Z,37.30
2018-02-06T04:46:33.910Z,33.33
2018-02-06T04:49:01.430Z,30.93
2018-02-06T04:51:28.925Z,32.10
2018-02-06T04:53:56.617Z,34.30
2018-02-06T04:56:24.113Z,32.93
2018-02-06T04:58:51.613Z,30.53
2018-02-06T05:01:19.130Z,33.97
2018-02-06T05:03:46.625Z,34.93
2018-02-06T05:06:14.137Z,34.93
2018-02-06T05:08:42.402Z,37.17
2018-02-06T05:11:10.705Z,33.80
2018-02-06T05:13:38.202Z,39.20
2018-02-06T05:16:05.697Z,33.30
2018-02-06T05:18:33.981Z,39.00
2018-02-06T05:21:02.246Z,33.53
2018-02-06T05:23:30.533Z,32.20
2018-02-06T05:25:58.797Z,33.10
2018-02-06T05:28:27.082Z,33.93
2018-02-06T05:30:55.345Z,39.80
2018-02-06T05:33:22.842Z,30.87
2018-02-06T05:35:50.361Z,35.73
2018-02-06T05:38:18.621Z,32.13
2018-02-06T05:40:46.141Z,33.03
2018-02-06T05:43:13.634Z,33.70
2018-02-06T05:45:41.200Z,33.10
2018-02-06T05:48:08.670Z,32.87
2018-02-06T05:50:36.170Z,36.27
2018-02-06T05:53:03.690Z,34.80
2018-02-06T05:55:31.954Z,33.10
2018-02-06T05:57:59.469Z,33.87
2018-02-06T06:00:26.965Z,33.10
2018-02-06T06:02:54.486Z,37.20
2018-02-06T06:05:21.982Z,32.70
2018-02-06T06:07:49.486Z,32.47
2018-02-06T06:10:17.006Z,32.77
2018-02-06T06:12:44.501Z,32.53
2018-02-06T06:15:12.022Z,33.43
2018-02-06T06:20:13.381Z,37.67
2018-02-06T06:22:40.877Z,32.63
2018-02-06T06:25:08.374Z,44.37
2018-02-06T06:27:35.899Z,35.73
2018-02-06T06:30:03.395Z,32.47
2018-02-06T06:32:30.923Z,33.07
2018-02-06T06:34:58.426Z,34.00
2018-02-06T06:37:25.945Z,29.77
2018-02-06T06:39:53.461Z,32.97
2018-02-06T06:42:21.737Z,32.37
2018-02-06T06:44:49.258Z,32.07
2018-02-06T06:47:16.753Z,36.17
2018-02-06T06:49:44.274Z,34.83
2018-02-06T06:52:11.785Z,30.97
2018-02-06T06:54:40.075Z,35.20
2018-02-06T06:57:07.569Z,35.27
2018-02-06T06:59:35.066Z,37.70
2018-02-06T07:02:02.585Z,31.43
2018-02-06T07:04:30.086Z,31.40
2018-02-06T07:06:58.373Z,32.40
2018-02-06T07:09:26.640Z,35.43
2018-02-06T07:11:54.921Z,38.13
2018-02-06T07:14:23.186Z,31.57
2018-02-06T07:16:50.689Z,34.70
2018-02-06T07:19:18.210Z,35.23
2018-02-06T07:21:46.473Z,34.93
2018-02-06T07:24:13.994Z,30.03
2018-02-06T07:26:41.490Z,32.33
2018-02-06T07:29:09.009Z,28.63
2018-02-06T07:31:36.501Z,31.23
2018-02-06T07:34:04.005Z,34.30
2018-02-06T07:36:31.526Z,29.70
2018-02-06T07:38:59.134Z,34.40
2018-02-06T07:41:26.654Z,31.07
2018-02-06T07:43:54.918Z,33.13
2018-02-06T07:46:22.438Z,31.90
2018-02-06T07:48:49.934Z,32.73
2018-02-06T07:51:17.430Z,32.10
2018-02-06T07:53:44.949Z,32.17
2018-02-06T07:56:12.473Z,39.23
2018-02-06T07:58:39.995Z,31.70
2018-02-06T08:01:08.268Z,34.37
2018-02-06T08:03:36.553Z,35.57
2018-02-06T08:06:04.051Z,35.13
2018-02-06T08:08:31.555Z,33.63
2018-02-06T08:10:59.837Z,35.20
2018-02-06T08:13:28.101Z,34.07
2018-02-06T08:15:56.386Z,30.03
2018-02-06T08:18:24.655Z,34.17
2018-02-06T08:20:52.175Z,34.57
2018-02-06T08:23:19.678Z,31.63
2018-02-06T08:25:47.942Z,31.50
2018-02-06T08:28:15.462Z,33.63
2018-02-06T08:30:42.962Z,32.13
2018-02-06T08:33:10.477Z,30.23
2018-02-06T08:35:37.976Z,29.00
2018-02-06T08:38:05.502Z,27.47
2018-02-06T08:40:33.002Z,32.70
2018-02-06T08:43:01.266Z,31.17
2018-02-06T08:45:28.785Z,26.83
2018-02-06T08:47:56.286Z,30.30
2018-02-06T08:50:24.573Z,30.63
2018-02-06T08:52:52.834Z,30.20
2018-02-06T08:55:20.358Z,29.03
2018-02-06T08:57:47.853Z,27.40
2018-02-06T09:00:15.351Z,36.37
2018-02-06T09:02:42.870Z,33.60
2018-02-06T09:05:10.366Z,30.30
2018-02-06T09:07:37.994Z,27.53
2018-02-06T09:10:05.498Z,29.03
2018-02-06T09:12:33.018Z,28.20
2018-02-06T09:15:01.282Z,26.73
2018-02-06T09:17:30.290Z,25.00
2018-02-06T09:19:58.565Z,33.83
2018-02-06T09:22:26.062Z,28.47
2018-02-06T09:24:53.581Z,28.97
2018-02-06T09:27:21.833Z,28.20
2018-02-06T09:29:49.346Z,25.47
2018-02-06T09:32:16.842Z,30.93
2018-02-06T09:34:44.342Z,27.33
2018-02-06T09:37:12.626Z,28.90
2018-02-06T09:39:40.158Z,33.90
2018-02-06T09:42:07.665Z,30.83
2018-02-06T09:44:35.158Z,26.53
2018-02-06T09:47:02.673Z,31.03
2018-02-06T09:49:30.166Z,27.83
2018-02-06T09:51:57.657Z,31.93
2018-02-06T09:54:25.937Z,29.40
2018-02-06T09:56:54.198Z,31.10
2018-02-06T09:59:21.714Z,31.30
2018-02-06T10:01:49.210Z,28.77
2018-02-06T10:04:16.726Z,30.67
2018-02-06T10:06:44.214Z,26.37
2018-02-06T10:09:11.710Z,30.10
2018-02-06T10:11:39.989Z,28.40
2018-02-06T10:14:08.250Z,30.97
2018-02-06T10:16:35.766Z,27.70
2018-02-06T10:19:03.253Z,30.40
2018-02-06T10:21:30.741Z,28.07
2018-02-06T10:23:59.057Z,30.37
2018-02-06T10:26:26.541Z,32.07
2018-02-06T10:28:54.050Z,28.23
2018-02-06T10:31:21.543Z,30.20
2018-02-06T10:33:49.029Z,29.60
2018-02-06T10:36:16.541Z,32.70
2018-02-06T10:38:44.033Z,29.50
2018-02-06T10:41:11.545Z,30.53
2018-02-06T10:43:39.041Z,28.67
2018-02-06T10:46:06.529Z,28.43
2018-02-06T10:48:34.049Z,30.63
2018-02-06T10:51:01.541Z,28.83
2018-02-06T10:53:29.821Z,33.50
2018-02-06T10:55:58.109Z,28.20
2018-02-06T10:58:26.389Z,29.17
2018-02-06T11:00:54.645Z,27.73
2018-02-06T11:03:22.145Z,31.40
2018-02-06T11:05:49.659Z,27.80
2018-02-06T11:08:17.149Z,28.40
2018-02-06T11:10:44.665Z,35.60
2018-02-06T11:13:12.161Z,32.23
2018-02-06T11:15:39.649Z,33.20
2018-02-06T11:18:07.192Z,33.00
2018-02-06T11:20:34.681Z,30.80
2018-02-06T11:23:02.193Z,32.10
2018-02-06T11:25:29.681Z,29.27
2018-02-06T11:27:57.197Z,29.53
2018-02-06T11:30:25.459Z,32.40
2018-02-06T11:32:52.948Z,29.57
2018-02-06T11:35:20.461Z,38.43
2018-02-06T11:37:47.953Z,32.23
2018-02-06T11:40:16.235Z,33.10
2018-02-06T11:42:43.729Z,31.97
2018-02-06T11:45:11.225Z,37.43
2018-02-06T11:47:38.737Z,34.13
2018-02-06T11:50:06.225Z,31.17
2018-02-06T11:52:33.750Z,32.63
2018-02-06T11:55:01.248Z,30.40
2018-02-06T11:57:28.738Z,36.47
2018-02-06T11:59:57.014Z,35.50
2018-02-06T12:02:24.505Z,41.07
2018-02-06T12:04:52.016Z,37.30
2018-02-06T12:07:20.269Z,30.53
2018-02-06T12:09:47.754Z,35.43
2018-02-06T12:12:16.033Z,35.53
2018-02-06T12:14:44.285Z,34.30
2018-02-06T12:17:11.804Z,36.40
2018-02-06T12:19:39.301Z,43.03
2018-02-06T12:22:08.293Z,33.47
2018-02-06T12:24:35.849Z,33.73
2018-02-06T12:27:03.341Z,33.87
2018-02-06T12:29:30.853Z,30.70
2018-02-06T12:31:58.341Z,31.47
2018-02-06T12:34:26.601Z,31.03
2018-02-06T12:36:54.116Z,29.17
2018-02-06T12:39:21.601Z,28.87
2018-02-06T12:41:49.113Z,29.20
2018-02-06T12:44:17.365Z,31.27
2018-02-06T12:46:44.853Z,34.13
2018-02-06T12:49:12.361Z,31.50
2018-02-06T12:51:39.848Z,30.43
2018-02-06T12:54:08.125Z,38.47
2018-02-06T12:56:36.392Z,33.83
2018-02-06T12:59:03.883Z,32.33
2018-02-06T13:01:31.393Z,34.37
2018-02-06T13:04:00.505Z,31.63
2018-02-06T13:06:28.014Z,32.23
2018-02-06T13:08:55.504Z,34.27
2018-02-06T13:11:23.030Z,37.10
2018-02-06T13:13:50.524Z,34.30
2018-02-06T13:16:18.013Z,29.80
2018-02-06T13:18:46.285Z,31.70
2018-02-06T13:21:14.542Z,31.60
2018-02-06T13:23:42.057Z,34.00
2018-02-06T13:26:09.545Z,35.80
2018-02-06T13:28:37.033Z,30.47
2018-02-06T13:31:05.305Z,34.60
2018-02-06T13:33:33.557Z,35.80
2018-02-06T13:36:01.070Z,42.67
2018-02-06T13:38:28.559Z,35.63
2018-02-06T13:40:56.053Z,35.40
2018-02-06T13:43:23.567Z,35.77
2018-02-06T13:45:51.063Z,34.13
2018-02-06T13:48:18.580Z,33.63
2018-02-06T13:50:46.073Z,32.20
2018-02-06T13:53:13.589Z,31.93
2018-02-06T13:55:41.085Z,34.67
2018-02-06T13:58:08.573Z,30.53
2018-02-06T14:00:36.853Z,31.40
2018-02-06T14:03:05.109Z,37.13
2018-02-06T14:05:32.626Z,38.67
2018-02-06T14:08:00.122Z,38.30
2018-02-06T14:10:27.614Z,30.60
2018-02-06T14:12:55.125Z,34.67
2018-02-06T14:15:22.618Z,31.00
2018-02-06T14:17:50.918Z,29.97
2018-02-06T14:20:18.409Z,35.37
2018-02-06T14:22:45.901Z,30.53
2018-02-06T14:25:13.413Z,35.60
2018-02-06T14:27:40.901Z,36.60
2018-02-06T14:30:08.418Z,34.77
2018-02-06T14:32:35.910Z,31.20
2018-02-06T14:35:03.402Z,34.37
2018-02-06T14:37:31.678Z,36.40
2018-02-06T14:39:59.169Z,37.03
2018-02-06T14:42:26.686Z,37.63
2018-02-06T14:44:54.943Z,37.77
2018-02-06T14:47:22.433Z,31.63
2018-02-06T14:49:50.717Z,45.80
2018-02-06T14:52:18.211Z,33.30
2018-02-06T14:54:45.721Z,38.70
2018-02-06T14:57:13.983Z,31.90
2018-02-06T14:59:42.268Z,33.83
2018-02-06T15:02:10.521Z,36.00
2018-02-06T15:04:38.013Z,31.03
2018-02-06T15:07:06.299Z,39.63
2018-02-06T15:09:33.793Z,37.60
2018-02-06T15:12:01.306Z,33.73
2018-02-06T15:14:28.793Z,36.57
2018-02-06T15:16:56.281Z,34.87
2018-02-06T15:19:23.794Z,35.90
2018-02-06T15:21:51.281Z,37.60
2018-02-06T15:24:18.797Z,34.30
2018-02-06T15:26:47.056Z,34.90
2018-02-06T15:29:15.342Z,35.20
2018-02-06T15:31:43.602Z,36.20
2018-02-06T15:34:11.093Z,32.80
2018-02-06T15:36:38.605Z,38.57
2018-02-06T15:39:06.098Z,36.43
2018-02-06T15:41:34.378Z,39.70
2018-02-06T15:44:02.630Z,36.43
2018-02-06T15:46:30.118Z,38.50
2018-02-06T15:48:57.651Z,36.67
2018-02-06T15:51:25.143Z,31.87
2018-02-06T15:53:52.638Z,35.03
2018-02-06T15:56:20.150Z,37.10
2018-02-06T15:58:47.637Z,36.17
2018-02-06T16:01:15.141Z,37.03
2018-02-06T16:03:42.653Z,35.57
2018-02-06T16:06:10.146Z,32.30
2018-02-06T16:08:37.666Z,35.37
2018-02-06T16:11:05.157Z,36.80
2018-02-06T16:13:32.654Z,33.93
2018-02-06T16:16:00.170Z,33.00
2018-02-06T16:18:27.665Z,35.47
2018-02-06T16:20:55.946Z,36.30
2018-02-06T16:23:24.206Z,36.63
2018-02-06T16:25:51.746Z,42.73
2018-02-06T16:28:19.265Z,35.03
2018-02-06T16:30:46.762Z,41.00
2018-02-06T16:33:14.274Z,39.03
2018-02-06T16:35:41.766Z,35.17
2018-02-06T16:38:09.264Z,36.60
2018-02-06T16:40:37.546Z,34.40
2018-02-06T16:43:05.848Z,30.50
2018-02-06T16:45:33.366Z,36.00
2018-02-06T16:48:01.626Z,37.00
2018-02-06T16:50:29.122Z,40.17
2018-02-06T16:52:56.638Z,35.07
2018-02-06T16:55:24.125Z,35.63
2018-02-06T16:57:52.410Z,37.87
2018-02-06T17:00:20.670Z,37.63
2018-02-06T17:02:48.932Z,35.93
2018-02-06T17:05:16.441Z,33.73
2018-02-06T17:07:43.938Z,36.20
2018-02-06T17:10:11.453Z,38.90
2018-02-06T17:12:38.949Z,39.37
2018-02-06T17:15:06.442Z,36.70
2018-02-06T17:17:34.725Z,36.30
2018-02-06T17:20:02.985Z,35.27
2018-02-06T17:22:30.498Z,38.77
2018-02-06T17:24:57.985Z,36.10
2018-02-06T17:27:25.477Z,36.00
2018-02-06T17:29:53.758Z,32.77
2018-02-06T17:32:22.009Z,34.53
2018-02-06T17:34:49.558Z,38.80
2018-02-06T17:37:17.049Z,41.70
2018-02-06T17:39:44.545Z,42.40
2018-02-06T17:42:12.066Z,39.90
2018-02-06T17:44:40.330Z,34.57
2018-02-06T17:47:08.614Z,38.47
2018-02-06T17:49:36.870Z,39.37
2018-02-06T17:52:04.361Z,40.40
2018-02-06T17:54:31.869Z,34.87
2018-02-06T17:56:59.362Z,39.20
2018-02-06T17:59:27.637Z,35.80
2018-02-06T18:01:55.898Z,35.83
2018-02-06T18:04:23.398Z,40.67
2018-02-06T18:06:50.910Z,35.37
2018-02-06T18:09:18.406Z,33.97
2018-02-06T18:11:45.922Z,38.87
2018-02-06T18:14:13.415Z,37.47
2018-02-06T18:16:40.914Z,36.63
2018-02-06T18:19:08.425Z,40.60
2018-02-06T18:21:35.922Z,36.77
2018-02-06T18:24:03.443Z,40.00
2018-02-06T18:26:31.703Z,40.87
2018-02-06T18:28:59.202Z,41.07
2018-02-06T18:31:26.774Z,36.13
2018-02-06T18:33:54.998Z,38.00
2018-02-06T18:36:23.282Z,45.30
2018-02-06T18:38:51.541Z,43.37
2018-02-06T18:41:19.045Z,46.23
2018-02-06T18:43:46.561Z,47.33
2018-02-06T18:46:14.050Z,41.57
2018-02-06T18:48:41.568Z,41.63
2018-02-06T18:51:09.063Z,44.40
2018-02-06T18:53:36.578Z,40.40
2018-02-06T18:56:04.070Z,37.80
2018-02-06T18:58:32.330Z,36.57
2018-02-06T19:00:59.845Z,42.53
2018-02-06T19:03:27.338Z,66.43
2018-02-06T19:05:54.862Z,41.73
2018-02-06T19:08:22.358Z,39.33
2018-02-06T19:10:49.885Z,44.27
2018-02-06T19:13:17.378Z,45.33
2018-02-06T19:15:44.921Z,39.03
2018-02-06T19:18:12.438Z,43.37
2018-02-06T19:20:39.929Z,40.30
2018-02-06T19:23:07.437Z,39.57
2018-02-06T19:25:35.694Z,34.33
2018-02-06T19:28:03.973Z,39.67
2018-02-06T19:30:32.230Z,37.33
2018-02-06T19:32:59.777Z,40.70
2018-02-06T19:35:28.058Z,36.47
2018-02-06T19:37:55.549Z,37.67
2018-02-06T19:40:23.830Z,38.10
2018-02-06T19:42:52.098Z,41.00
2018-02-06T19:45:20.387Z,36.20
2018-02-06T19:47:47.882Z,41.60
2018-02-06T19:50:15.374Z,37.97
2018-02-06T19:52:42.894Z,43.30
2018-02-06T19:55:10.386Z,38.00
2018-02-06T19:57:37.926Z,38.17
2018-02-06T20:00:05.417Z,41.87
2018-02-06T20:02:32.929Z,41.10
2018-02-06T20:05:00.422Z,39.13
2018-02-06T20:07:27.918Z,39.70
2018-02-06T20:09:55.434Z,34.50
2018-02-06T20:12:22.930Z,40.10
2018-02-06T20:14:50.453Z,40.43
2018-02-06T20:17:17.950Z,36.50
2018-02-06T20:19:45.520Z,39.93
2018-02-06T20:22:13.759Z,41.17
2018-02-06T20:24:41.281Z,36.10
2018-02-06T20:27:08.779Z,40.60
2018-02-06T20:29:37.046Z,43.37
2018-02-06T20:32:04.566Z,37.53
2018-02-06T20:34:32.062Z,42.47
2018-02-06T20:36:59.578Z,40.80
2018-02-06T20:39:27.073Z,40.90
2018-02-06T20:41:54.634Z,44.33
2018-02-06T20:44:22.116Z,46.23
2018-02-06T20:46:50.379Z,39.77
2018-02-06T20:49:17.906Z,44.80
2018-02-06T20:51:45.401Z,42.13
2018-02-06T20:54:13.685Z,40.30
2018-02-06T20:56:41.954Z,47.03
2018-02-06T20:59:10.245Z,40.00
2018-02-06T21:01:38.505Z,41.63
2018-02-06T21:04:06.774Z,42.80
2018-02-06T21:06:34.294Z,45.07
2018-02-06T21:09:01.791Z,45.97
2018-02-06T21:11:29.309Z,45.23
2018-02-06T21:13:56.805Z,43.90
2018-02-06T21:16:24.323Z,47.20
2018-02-06T21:18:51.817Z,45.73
2018-02-06T21:21:19.313Z,45.07
2018-02-06T21:23:46.837Z,40.30
2018-02-06T21:26:14.334Z,43.07
2018-02-06T21:28:41.854Z,42.80
2018-02-06T21:31:09.350Z,44.20
2018-02-06T21:33:36.866Z,46.27
2018-02-06T21:36:04.362Z,43.23
2018-02-06T21:38:31.882Z,44.03
2018-02-06T21:40:59.382Z,39.30
2018-02-06T21:43:26.902Z,42.43
2018-02-06T21:45:54.406Z,40.30
2018-02-06T21:48:21.906Z,43.03
2018-02-06T21:50:49.426Z,42.47
2018-02-06T21:53:16.921Z,43.60
2018-02-06T21:55:44.442Z,42.47
2018-02-06T21:58:11.945Z,47.17
2018-02-06T22:00:39.470Z,47.80
2018-02-06T22:03:06.972Z,41.13
2018-02-06T22:05:34.465Z,44.27
2018-02-06T22:08:01.986Z,45.07
2018-02-06T22:10:29.498Z,43.80
2018-02-06T22:12:57.017Z,47.83
2018-02-06T22:15:25.278Z,43.40
2018-02-06T22:17:52.797Z,43.00
2018-02-06T22:20:20.295Z,41.03
2018-02-06T22:22:47.793Z,42.03
2018-02-06T22:25:15.322Z,46.37
2018-02-06T22:27:43.589Z,43.40
2018-02-06T22:30:11.110Z,39.47
2018-02-06T22:32:38.601Z,43.33
2018-02-06T22:35:06.121Z,41.80
2018-02-06T22:37:33.619Z,44.57
2018-02-06T22:40:01.149Z,49.07
2018-02-06T22:42:28.645Z,41.60
2018-02-06T22:44:56.150Z,40.90
2018-02-06T22:47:23.669Z,46.90
2018-02-06T22:49:51.925Z,41.47
2018-02-06T22:52:19.442Z,43.20
2018-02-06T22:54:46.937Z,51.60
2018-02-06T22:57:14.457Z,44.73
2018-02-06T22:59:41.957Z,42.97
2018-02-06T23:02:09.478Z,44.47
2018-02-06T23:04:36.982Z,41.70
2018-02-06T23:07:04.477Z,40.30
2018-02-06T23:09:31.998Z,46.30
2018-02-06T23:11:59.494Z,46.23
2018-02-06T23:14:27.014Z,44.13
2018-02-06T23:16:54.509Z,47.70
2018-02-06T23:19:22.026Z,43.30
2018-02-06T23:21:49.534Z,45.73
2018-02-06T23:24:17.034Z,42.37
2018-02-06T23:26:44.554Z,47.40
2018-02-06T23:29:12.050Z,51.00
2018-02-06T23:31:40.342Z,50.17
2018-02-06T23:34:07.848Z,50.80
2018-02-06T23:36:35.366Z,50.83
2018-02-06T23:39:02.862Z,45.50
2018-02-06T23:41:30.361Z,49.30
2018-02-06T23:43:57.879Z,45.40
2018-02-06T23:46:25.385Z,46.23
2018-02-06T23:48:52.910Z,40.90
2018-02-06T23:51:20.406Z,46.43
2018-02-06T23:53:47.925Z,43.93
2018-02-06T23:56:15.425Z,42.00
2018-02-06T23:58:42.926Z,43.50
